sensor_id;sensor_type;location;lat;lon;timestamp;P1;durP1;ratioP1;P2;durP2;ratioP2
79460;SDS011;68929;42.666;23.324;2023-08-20T00:00:19;13.63;;;8.05;;
79460;SDS011;68929;42.666;23.324;2023-08-20T00:02:45;7.22;;;6.55;;
79460;SDS011;68929;42.666;23.324;2023-08-20T00:05:12;7.78;;;6.25;;
79460;SDS011;68929;42.666;23.324;2023-08-20T00:07:38;8.25;;;7.25;;
79460;SDS011;68929;42.666;23.324;2023-08-20T00:10:04;10.85;;;7.55;;
79460;SDS011;68929;42.666;23.324;2023-08-20T00:12:30;8.18;;;7.05;;
79460;SDS011;68929;42.666;23.324;2023-08-20T00:14:57;7.53;;;6.82;;
79460;SDS011;68929;42.666;23.324;2023-08-20T00:17:29;9.18;;;6.80;;
79460;SDS011;68929;42.666;23.324;2023-08-20T00:19:55;10.73;;;7.65;;
79460;SDS011;68929;42.666;23.324;2023-08-20T00:22:22;11.70;;;7.60;;
79460;SDS011;68929;42.666;23.324;2023-08-20T00:24:48;7.82;;;7.13;;
79460;SDS011;68929;42.666;23.324;2023-08-20T00:27:14;9.02;;;7.22;;
79460;SDS011;68929;42.666;23.324;2023-08-20T00:29:40;9.43;;;6.65;;
79460;SDS011;68929;42.666;23.324;2023-08-20T00:32:05;9.48;;;7.28;;
79460;SDS011;68929;42.666;23.324;2023-08-20T00:34:30;7.93;;;7.13;;
79460;SDS011;68929;42.666;23.324;2023-08-20T00:36:57;9.45;;;8.25;;
79460;SDS011;68929;42.666;23.324;2023-08-20T00:39:22;8.25;;;7.38;;
79460;SDS011;68929;42.666;23.324;2023-08-20T00:41:48;8.18;;;7.35;;
79460;SDS011;68929;42.666;23.324;2023-08-20T00:44:13;7.70;;;7.00;;
79460;SDS011;68929;42.666;23.324;2023-08-20T00:46:39;8.05;;;7.15;;
79460;SDS011;68929;42.666;23.324;2023-08-20T00:49:04;8.20;;;7.05;;
79460;SDS011;68929;42.666;23.324;2023-08-20T00:51:32;8.80;;;7.90;;
79460;SDS011;68929;42.666;23.324;2023-08-20T00:53:58;10.40;;;7.15;;
79460;SDS011;68929;42.666;23.324;2023-08-20T00:56:25;9.30;;;8.10;;
79460;SDS011;68929;42.666;23.324;2023-08-20T00:58:52;15.85;;;8.70;;
79460;SDS011;68929;42.666;23.324;2023-08-20T01:01:20;8.57;;;7.65;;
79460;SDS011;68929;42.666;23.324;2023-08-20T01:03:47;9.93;;;8.73;;
79460;SDS011;68929;42.666;23.324;2023-08-20T01:06:18;9.30;;;7.95;;
79460;SDS011;68929;42.666;23.324;2023-08-20T01:08:52;11.77;;;9.45;;
79460;SDS011;68929;42.666;23.324;2023-08-20T01:11:29;10.63;;;9.15;;
79460;SDS011;68929;42.666;23.324;2023-08-20T01:13:58;10.35;;;8.57;;
79460;SDS011;68929;42.666;23.324;2023-08-20T01:16:24;22.05;;;11.98;;
79460;SDS011;68929;42.666;23.324;2023-08-20T01:18:49;15.70;;;12.50;;
79460;SDS011;68929;42.666;23.324;2023-08-20T01:29:25;11.77;;;9.57;;
79460;SDS011;68929;42.666;23.324;2023-08-20T01:31:52;13.15;;;9.82;;
79460;SDS011;68929;42.666;23.324;2023-08-20T01:34:19;9.45;;;8.38;;
79460;SDS011;68929;42.666;23.324;2023-08-20T01:36:44;10.50;;;9.43;;
79460;SDS011;68929;42.666;23.324;2023-08-20T01:39:09;10.10;;;8.95;;
79460;SDS011;68929;42.666;23.324;2023-08-20T01:41:35;11.40;;;8.05;;
79460;SDS011;68929;42.666;23.324;2023-08-20T01:44:00;11.45;;;8.10;;
79460;SDS011;68929;42.666;23.324;2023-08-20T01:46:26;9.52;;;8.68;;
79460;SDS011;68929;42.666;23.324;2023-08-20T01:48:51;12.05;;;8.65;;
79460;SDS011;68929;42.666;23.324;2023-08-20T01:51:16;9.55;;;8.65;;
79460;SDS011;68929;42.666;23.324;2023-08-20T01:53:42;13.00;;;7.90;;
79460;SDS011;68929;42.666;23.324;2023-08-20T01:56:13;13.65;;;9.02;;
79460;SDS011;68929;42.666;23.324;2023-08-20T01:58:39;10.00;;;9.00;;
79460;SDS011;68929;42.666;23.324;2023-08-20T02:01:04;9.82;;;8.73;;
79460;SDS011;68929;42.666;23.324;2023-08-20T02:03:30;11.30;;;8.82;;
79460;SDS011;68929;42.666;23.324;2023-08-20T02:05:56;14.80;;;9.18;;
79460;SDS011;68929;42.666;23.324;2023-08-20T02:08:21;10.85;;;9.57;;
79460;SDS011;68929;42.666;23.324;2023-08-20T02:10:48;10.45;;;9.13;;
79460;SDS011;68929;42.666;23.324;2023-08-20T02:13:13;13.15;;;8.27;;
79460;SDS011;68929;42.666;23.324;2023-08-20T02:15:39;11.27;;;10.18;;
79460;SDS011;68929;42.666;23.324;2023-08-20T02:18:04;9.82;;;8.88;;
79460;SDS011;68929;42.666;23.324;2023-08-20T02:20:30;9.23;;;8.20;;
79460;SDS011;68929;42.666;23.324;2023-08-20T02:22:55;10.43;;;8.95;;
79460;SDS011;68929;42.666;23.324;2023-08-20T02:25:20;9.90;;;8.90;;
79460;SDS011;68929;42.666;23.324;2023-08-20T02:27:46;12.05;;;8.73;;
79460;SDS011;68929;42.666;23.324;2023-08-20T02:30:11;12.13;;;9.60;;
79460;SDS011;68929;42.666;23.324;2023-08-20T02:32:38;9.82;;;8.63;;
79460;SDS011;68929;42.666;23.324;2023-08-20T02:35:04;9.30;;;8.40;;
79460;SDS011;68929;42.666;23.324;2023-08-20T02:37:31;14.48;;;9.05;;
79460;SDS011;68929;42.666;23.324;2023-08-20T02:39:56;9.18;;;8.27;;
79460;SDS011;68929;42.666;23.324;2023-08-20T02:42:22;12.93;;;9.43;;
79460;SDS011;68929;42.666;23.324;2023-08-20T02:44:47;12.43;;;8.82;;
79460;SDS011;68929;42.666;23.324;2023-08-20T02:47:13;9.32;;;8.45;;
79460;SDS011;68929;42.666;23.324;2023-08-20T02:49:38;9.07;;;7.90;;
79460;SDS011;68929;42.666;23.324;2023-08-20T02:52:04;10.88;;;9.20;;
79460;SDS011;68929;42.666;23.324;2023-08-20T02:54:29;13.07;;;9.48;;
79460;SDS011;68929;42.666;23.324;2023-08-20T02:56:57;11.23;;;8.93;;
79460;SDS011;68929;42.666;23.324;2023-08-20T02:59:23;10.40;;;8.60;;
79460;SDS011;68929;42.666;23.324;2023-08-20T03:01:49;11.73;;;9.85;;
79460;SDS011;68929;42.666;23.324;2023-08-20T03:04:14;12.63;;;9.00;;
79460;SDS011;68929;42.666;23.324;2023-08-20T03:06:39;13.55;;;10.68;;
79460;SDS011;68929;42.666;23.324;2023-08-20T03:09:05;9.88;;;8.32;;
79460;SDS011;68929;42.666;23.324;2023-08-20T03:11:30;9.60;;;8.55;;
79460;SDS011;68929;42.666;23.324;2023-08-20T03:13:56;11.70;;;9.50;;
79460;SDS011;68929;42.666;23.324;2023-08-20T03:16:21;9.63;;;8.70;;
79460;SDS011;68929;42.666;23.324;2023-08-20T03:18:47;10.75;;;8.63;;
79460;SDS011;68929;42.666;23.324;2023-08-20T03:21:12;9.07;;;8.18;;
79460;SDS011;68929;42.666;23.324;2023-08-20T03:23:38;11.48;;;9.93;;
79460;SDS011;68929;42.666;23.324;2023-08-20T03:26:03;10.65;;;8.60;;
79460;SDS011;68929;42.666;23.324;2023-08-20T03:28:28;9.82;;;8.80;;
79460;SDS011;68929;42.666;23.324;2023-08-20T03:30:54;10.68;;;8.13;;
79460;SDS011;68929;42.666;23.324;2023-08-20T03:33:19;10.77;;;9.13;;
79460;SDS011;68929;42.666;23.324;2023-08-20T03:35:45;10.40;;;9.38;;
79460;SDS011;68929;42.666;23.324;2023-08-20T03:38:11;8.85;;;8.02;;
79460;SDS011;68929;42.666;23.324;2023-08-20T03:40:36;9.68;;;8.50;;
79460;SDS011;68929;42.666;23.324;2023-08-20T03:43:02;9.50;;;8.60;;
79460;SDS011;68929;42.666;23.324;2023-08-20T03:45:28;12.65;;;10.50;;
79460;SDS011;68929;42.666;23.324;2023-08-20T03:47:55;9.45;;;8.52;;
79460;SDS011;68929;42.666;23.324;2023-08-20T03:50:25;8.75;;;7.90;;
79460;SDS011;68929;42.666;23.324;2023-08-20T03:52:52;13.45;;;8.32;;
79460;SDS011;68929;42.666;23.324;2023-08-20T03:55:18;10.27;;;7.97;;
79460;SDS011;68929;42.666;23.324;2023-08-20T03:57:43;9.55;;;8.55;;
79460;SDS011;68929;42.666;23.324;2023-08-20T04:00:09;9.55;;;8.48;;
79460;SDS011;68929;42.666;23.324;2023-08-20T04:02:35;8.63;;;7.82;;
79460;SDS011;68929;42.666;23.324;2023-08-20T04:05:00;9.20;;;8.35;;
79460;SDS011;68929;42.666;23.324;2023-08-20T04:07:26;10.13;;;8.30;;
79460;SDS011;68929;42.666;23.324;2023-08-20T04:09:51;10.50;;;9.20;;
79460;SDS011;68929;42.666;23.324;2023-08-20T04:12:16;8.45;;;7.63;;
79460;SDS011;68929;42.666;23.324;2023-08-20T04:14:42;8.57;;;7.70;;
79460;SDS011;68929;42.666;23.324;2023-08-20T04:17:07;13.73;;;9.25;;
79460;SDS011;68929;42.666;23.324;2023-08-20T04:19:32;9.68;;;8.88;;
79460;SDS011;68929;42.666;23.324;2023-08-20T04:21:58;9.52;;;8.63;;
79460;SDS011;68929;42.666;23.324;2023-08-20T04:24:23;11.43;;;9.80;;
79460;SDS011;68929;42.666;23.324;2023-08-20T04:26:49;10.02;;;8.15;;
79460;SDS011;68929;42.666;23.324;2023-08-20T04:29:14;13.13;;;9.35;;
79460;SDS011;68929;42.666;23.324;2023-08-20T04:31:39;10.77;;;9.35;;
79460;SDS011;68929;42.666;23.324;2023-08-20T04:34:05;8.95;;;8.00;;
79460;SDS011;68929;42.666;23.324;2023-08-20T04:36:30;11.38;;;9.30;;
79460;SDS011;68929;42.666;23.324;2023-08-20T04:38:55;10.25;;;9.13;;
79460;SDS011;68929;42.666;23.324;2023-08-20T04:41:21;13.77;;;8.48;;
79460;SDS011;68929;42.666;23.324;2023-08-20T04:43:46;9.25;;;8.20;;
79460;SDS011;68929;42.666;23.324;2023-08-20T04:46:12;9.13;;;8.25;;
79460;SDS011;68929;42.666;23.324;2023-08-20T04:48:37;9.73;;;8.70;;
79460;SDS011;68929;42.666;23.324;2023-08-20T04:51:03;9.20;;;8.32;;
79460;SDS011;68929;42.666;23.324;2023-08-20T04:53:30;10.00;;;9.05;;
79460;SDS011;68929;42.666;23.324;2023-08-20T04:55:56;13.10;;;9.30;;
79460;SDS011;68929;42.666;23.324;2023-08-20T04:58:23;9.73;;;8.43;;
79460;SDS011;68929;42.666;23.324;2023-08-20T05:00:48;9.38;;;8.48;;
79460;SDS011;68929;42.666;23.324;2023-08-20T05:03:13;9.95;;;8.35;;
79460;SDS011;68929;42.666;23.324;2023-08-20T05:05:39;8.90;;;8.00;;
79460;SDS011;68929;42.666;23.324;2023-08-20T05:08:04;9.85;;;8.63;;
79460;SDS011;68929;42.666;23.324;2023-08-20T05:10:29;10.18;;;9.18;;
79460;SDS011;68929;42.666;23.324;2023-08-20T05:12:55;9.95;;;9.00;;
79460;SDS011;68929;42.666;23.324;2023-08-20T05:15:20;10.13;;;8.60;;
79460;SDS011;68929;42.666;23.324;2023-08-20T05:17:46;9.80;;;8.80;;
79460;SDS011;68929;42.666;23.324;2023-08-20T05:20:11;13.70;;;8.93;;
79460;SDS011;68929;42.666;23.324;2023-08-20T05:22:37;10.43;;;9.25;;
79460;SDS011;68929;42.666;23.324;2023-08-20T05:25:02;12.75;;;9.05;;
79460;SDS011;68929;42.666;23.324;2023-08-20T05:27:28;10.00;;;9.10;;
79460;SDS011;68929;42.666;23.324;2023-08-20T05:29:53;8.88;;;7.97;;
79460;SDS011;68929;42.666;23.324;2023-08-20T05:32:18;16.17;;;11.27;;
79460;SDS011;68929;42.666;23.324;2023-08-20T05:34:44;18.67;;;11.70;;
79460;SDS011;68929;42.666;23.324;2023-08-20T05:37:09;11.80;;;8.35;;
79460;SDS011;68929;42.666;23.324;2023-08-20T05:39:40;10.63;;;7.57;;
79460;SDS011;68929;42.666;23.324;2023-08-20T05:42:17;10.52;;;8.77;;
79460;SDS011;68929;42.666;23.324;2023-08-20T05:44:42;14.50;;;8.77;;
79460;SDS011;68929;42.666;23.324;2023-08-20T05:47:08;10.10;;;9.07;;
79460;SDS011;68929;42.666;23.324;2023-08-20T05:49:33;10.35;;;7.75;;
79460;SDS011;68929;42.666;23.324;2023-08-20T05:51:59;10.73;;;9.15;;
79460;SDS011;68929;42.666;23.324;2023-08-20T05:54:24;11.00;;;8.05;;
79460;SDS011;68929;42.666;23.324;2023-08-20T05:56:49;13.73;;;9.02;;
79460;SDS011;68929;42.666;23.324;2023-08-20T05:59:15;12.45;;;8.43;;
79460;SDS011;68929;42.666;23.324;2023-08-20T06:01:40;8.38;;;7.32;;
79460;SDS011;68929;42.666;23.324;2023-08-20T06:04:06;10.43;;;8.13;;
79460;SDS011;68929;42.666;23.324;2023-08-20T06:06:31;17.50;;;9.18;;
79460;SDS011;68929;42.666;23.324;2023-08-20T06:08:56;12.85;;;8.35;;
79460;SDS011;68929;42.666;23.324;2023-08-20T06:11:22;11.30;;;8.57;;
79460;SDS011;68929;42.666;23.324;2023-08-20T06:13:47;10.30;;;9.35;;
79460;SDS011;68929;42.666;23.324;2023-08-20T06:16:13;12.88;;;9.60;;
79460;SDS011;68929;42.666;23.324;2023-08-20T06:18:38;10.82;;;8.55;;
79460;SDS011;68929;42.666;23.324;2023-08-20T06:21:03;11.88;;;8.80;;
79460;SDS011;68929;42.666;23.324;2023-08-20T06:23:29;11.93;;;9.10;;
79460;SDS011;68929;42.666;23.324;2023-08-20T06:25:54;11.48;;;8.60;;
79460;SDS011;68929;42.666;23.324;2023-08-20T06:28:20;9.68;;;8.15;;
79460;SDS011;68929;42.666;23.324;2023-08-20T06:30:46;10.90;;;7.32;;
79460;SDS011;68929;42.666;23.324;2023-08-20T06:33:11;9.35;;;8.38;;
79460;SDS011;68929;42.666;23.324;2023-08-20T06:35:37;9.73;;;8.70;;
79460;SDS011;68929;42.666;23.324;2023-08-20T06:38:03;11.23;;;8.68;;
79460;SDS011;68929;42.666;23.324;2023-08-20T06:40:28;14.07;;;9.23;;
79460;SDS011;68929;42.666;23.324;2023-08-20T06:42:54;9.77;;;8.80;;
79460;SDS011;68929;42.666;23.324;2023-08-20T06:45:20;12.45;;;8.77;;
79460;SDS011;68929;42.666;23.324;2023-08-20T06:47:48;12.68;;;8.73;;
79460;SDS011;68929;42.666;23.324;2023-08-20T06:50:13;13.13;;;9.20;;
79460;SDS011;68929;42.666;23.324;2023-08-20T06:52:39;10.35;;;9.25;;
79460;SDS011;68929;42.666;23.324;2023-08-20T06:55:04;11.50;;;9.52;;
79460;SDS011;68929;42.666;23.324;2023-08-20T06:57:30;12.57;;;8.45;;
79460;SDS011;68929;42.666;23.324;2023-08-20T06:59:55;11.75;;;9.05;;
79460;SDS011;68929;42.666;23.324;2023-08-20T07:02:21;17.52;;;8.70;;
79460;SDS011;68929;42.666;23.324;2023-08-20T07:04:46;11.48;;;9.35;;
79460;SDS011;68929;42.666;23.324;2023-08-20T07:07:12;12.38;;;8.70;;
79460;SDS011;68929;42.666;23.324;2023-08-20T07:09:37;12.05;;;8.02;;
79460;SDS011;68929;42.666;23.324;2023-08-20T07:12:04;9.27;;;8.05;;
79460;SDS011;68929;42.666;23.324;2023-08-20T07:14:33;11.57;;;8.18;;
79460;SDS011;68929;42.666;23.324;2023-08-20T07:16:59;9.23;;;7.85;;
79460;SDS011;68929;42.666;23.324;2023-08-20T07:19:25;10.43;;;8.40;;
79460;SDS011;68929;42.666;23.324;2023-08-20T07:21:50;12.48;;;7.70;;
79460;SDS011;68929;42.666;23.324;2023-08-20T07:24:15;10.23;;;7.65;;
79460;SDS011;68929;42.666;23.324;2023-08-20T07:26:41;11.68;;;8.23;;
79460;SDS011;68929;42.666;23.324;2023-08-20T07:29:07;13.32;;;7.60;;
79460;SDS011;68929;42.666;23.324;2023-08-20T07:31:32;12.25;;;7.97;;
79460;SDS011;68929;42.666;23.324;2023-08-20T07:34:03;8.88;;;7.03;;
79460;SDS011;68929;42.666;23.324;2023-08-20T07:36:32;13.52;;;7.45;;
79460;SDS011;68929;42.666;23.324;2023-08-20T07:38:59;11.40;;;7.05;;
79460;SDS011;68929;42.666;23.324;2023-08-20T07:41:24;9.65;;;7.85;;
79460;SDS011;68929;42.666;23.324;2023-08-20T07:43:50;10.70;;;6.75;;
79460;SDS011;68929;42.666;23.324;2023-08-20T07:46:15;9.43;;;7.40;;
79460;SDS011;68929;42.666;23.324;2023-08-20T07:48:41;11.95;;;7.88;;
79460;SDS011;68929;42.666;23.324;2023-08-20T07:51:07;10.40;;;7.35;;
79460;SDS011;68929;42.666;23.324;2023-08-20T07:53:33;12.27;;;7.10;;
79460;SDS011;68929;42.666;23.324;2023-08-20T07:56:02;9.98;;;6.80;;
79460;SDS011;68929;42.666;23.324;2023-08-20T07:58:27;10.02;;;6.25;;
79460;SDS011;68929;42.666;23.324;2023-08-20T08:00:53;8.90;;;6.90;;
79460;SDS011;68929;42.666;23.324;2023-08-20T08:03:19;11.52;;;7.30;;
79460;SDS011;68929;42.666;23.324;2023-08-20T08:05:48;10.88;;;7.07;;
79460;SDS011;68929;42.666;23.324;2023-08-20T08:08:15;11.55;;;6.78;;
79460;SDS011;68929;42.666;23.324;2023-08-20T08:10:41;10.52;;;6.22;;
79460;SDS011;68929;42.666;23.324;2023-08-20T08:13:09;8.77;;;6.53;;
79460;SDS011;68929;42.666;23.324;2023-08-20T08:15:35;6.88;;;6.18;;
79460;SDS011;68929;42.666;23.324;2023-08-20T08:18:00;8.65;;;6.05;;
79460;SDS011;68929;42.666;23.324;2023-08-20T08:20:25;9.05;;;6.57;;
79460;SDS011;68929;42.666;23.324;2023-08-20T08:22:51;7.30;;;6.43;;
79460;SDS011;68929;42.666;23.324;2023-08-20T08:25:16;7.38;;;5.72;;
79460;SDS011;68929;42.666;23.324;2023-08-20T08:27:41;10.45;;;6.07;;
79460;SDS011;68929;42.666;23.324;2023-08-20T08:30:07;10.80;;;6.50;;
79460;SDS011;68929;42.666;23.324;2023-08-20T08:32:32;10.15;;;6.28;;
79460;SDS011;68929;42.666;23.324;2023-08-20T08:35:02;6.45;;;5.65;;
79460;SDS011;68929;42.666;23.324;2023-08-20T08:37:33;13.45;;;5.50;;
79460;SDS011;68929;42.666;23.324;2023-08-20T08:39:58;6.50;;;5.78;;
79460;SDS011;68929;42.666;23.324;2023-08-20T08:42:24;11.02;;;5.53;;
79460;SDS011;68929;42.666;23.324;2023-08-20T08:44:50;10.32;;;5.70;;
79460;SDS011;68929;42.666;23.324;2023-08-20T08:47:16;8.05;;;5.40;;
79460;SDS011;68929;42.666;23.324;2023-08-20T08:49:46;10.23;;;4.70;;
79460;SDS011;68929;42.666;23.324;2023-08-20T08:52:13;8.85;;;5.70;;
79460;SDS011;68929;42.666;23.324;2023-08-20T08:54:38;7.72;;;4.80;;
79460;SDS011;68929;42.666;23.324;2023-08-20T08:57:04;8.55;;;4.78;;
79460;SDS011;68929;42.666;23.324;2023-08-20T08:59:30;4.65;;;4.13;;
79460;SDS011;68929;42.666;23.324;2023-08-20T09:01:56;6.90;;;4.28;;
79460;SDS011;68929;42.666;23.324;2023-08-20T09:04:24;5.82;;;4.95;;
79460;SDS011;68929;42.666;23.324;2023-08-20T09:06:51;5.82;;;4.63;;
79460;SDS011;68929;42.666;23.324;2023-08-20T09:09:18;5.15;;;4.70;;
79460;SDS011;68929;42.666;23.324;2023-08-20T09:11:44;6.43;;;4.97;;
79460;SDS011;68929;42.666;23.324;2023-08-20T09:14:23;6.28;;;4.95;;
79460;SDS011;68929;42.666;23.324;2023-08-20T09:16:59;8.50;;;4.78;;
79460;SDS011;68929;42.666;23.324;2023-08-20T09:19:30;5.38;;;4.40;;
79460;SDS011;68929;42.666;23.324;2023-08-20T09:22:00;8.50;;;4.53;;
79460;SDS011;68929;42.666;23.324;2023-08-20T09:24:32;6.03;;;4.55;;
79460;SDS011;68929;42.666;23.324;2023-08-20T09:27:03;5.28;;;4.20;;
79460;SDS011;68929;42.666;23.324;2023-08-20T09:29:31;7.05;;;4.68;;
79460;SDS011;68929;42.666;23.324;2023-08-20T09:32:23;8.02;;;4.30;;
79460;SDS011;68929;42.666;23.324;2023-08-20T09:34:51;5.10;;;4.10;;
79460;SDS011;68929;42.666;23.324;2023-08-20T09:37:18;5.20;;;4.43;;
79460;SDS011;68929;42.666;23.324;2023-08-20T09:39:45;6.72;;;5.00;;
79460;SDS011;68929;42.666;23.324;2023-08-20T09:42:11;7.07;;;4.57;;
79460;SDS011;68929;42.666;23.324;2023-08-20T09:44:40;7.60;;;4.35;;
79460;SDS011;68929;42.666;23.324;2023-08-20T09:47:11;8.73;;;4.40;;
79460;SDS011;68929;42.666;23.324;2023-08-20T09:49:38;5.45;;;4.55;;
79460;SDS011;68929;42.666;23.324;2023-08-20T09:52:07;5.82;;;4.25;;
79460;SDS011;68929;42.666;23.324;2023-08-20T09:59:57;6.47;;;4.35;;
79460;SDS011;68929;42.666;23.324;2023-08-20T10:02:24;5.50;;;3.60;;
79460;SDS011;68929;42.666;23.324;2023-08-20T10:04:51;5.40;;;4.07;;
79460;SDS011;68929;42.666;23.324;2023-08-20T10:07:17;3.97;;;3.33;;
79460;SDS011;68929;42.666;23.324;2023-08-20T10:09:43;4.82;;;3.40;;
79460;SDS011;68929;42.666;23.324;2023-08-20T10:12:11;3.40;;;3.10;;
79460;SDS011;68929;42.666;23.324;2023-08-20T10:14:40;3.80;;;3.22;;
79460;SDS011;68929;42.666;23.324;2023-08-20T10:17:07;3.30;;;3.10;;
79460;SDS011;68929;42.666;23.324;2023-08-20T10:19:33;5.88;;;3.40;;
79460;SDS011;68929;42.666;23.324;2023-08-20T10:22:01;4.50;;;3.33;;
79460;SDS011;68929;42.666;23.324;2023-08-20T10:24:28;5.47;;;3.60;;
79460;SDS011;68929;42.666;23.324;2023-08-20T10:27:09;5.18;;;3.65;;
79460;SDS011;68929;42.666;23.324;2023-08-20T10:32:08;4.70;;;3.58;;
79460;SDS011;68929;42.666;23.324;2023-08-20T10:34:37;7.22;;;3.50;;
79460;SDS011;68929;42.666;23.324;2023-08-20T10:37:10;7.63;;;3.72;;
79460;SDS011;68929;42.666;23.324;2023-08-20T10:39:37;5.68;;;3.70;;
79460;SDS011;68929;42.666;23.324;2023-08-20T10:45:08;4.40;;;3.60;;
79460;SDS011;68929;42.666;23.324;2023-08-20T10:50:08;4.28;;;3.30;;
79460;SDS011;68929;42.666;23.324;2023-08-20T10:52:46;4.57;;;3.42;;
79460;SDS011;68929;42.666;23.324;2023-08-20T10:55:14;3.70;;;3.30;;
79460;SDS011;68929;42.666;23.324;2023-08-20T10:57:40;4.03;;;3.13;;
79460;SDS011;68929;42.666;23.324;2023-08-20T11:00:06;5.47;;;3.42;;
79460;SDS011;68929;42.666;23.324;2023-08-20T11:02:37;4.70;;;3.40;;
79460;SDS011;68929;42.666;23.324;2023-08-20T11:05:03;6.93;;;3.22;;
79460;SDS011;68929;42.666;23.324;2023-08-20T11:07:33;4.72;;;3.50;;
79460;SDS011;68929;42.666;23.324;2023-08-20T11:10:03;4.68;;;3.60;;
79460;SDS011;68929;42.666;23.324;2023-08-20T11:12:32;5.50;;;3.28;;
79460;SDS011;68929;42.666;23.324;2023-08-20T11:15:00;4.60;;;3.33;;
79460;SDS011;68929;42.666;23.324;2023-08-20T11:17:26;6.65;;;3.58;;
79460;SDS011;68929;42.666;23.324;2023-08-20T11:19:51;6.85;;;3.30;;
79460;SDS011;68929;42.666;23.324;2023-08-20T11:22:17;5.53;;;3.40;;
79460;SDS011;68929;42.666;23.324;2023-08-20T11:24:43;4.00;;;3.30;;
79460;SDS011;68929;42.666;23.324;2023-08-20T11:27:09;3.87;;;3.00;;
79460;SDS011;68929;42.666;23.324;2023-08-20T11:29:34;5.90;;;3.42;;
79460;SDS011;68929;42.666;23.324;2023-08-20T11:32:00;4.07;;;3.30;;
79460;SDS011;68929;42.666;23.324;2023-08-20T11:34:28;3.40;;;3.10;;
79460;SDS011;68929;42.666;23.324;2023-08-20T11:36:54;3.67;;;3.38;;
79460;SDS011;68929;42.666;23.324;2023-08-20T11:39:19;4.20;;;3.33;;
79460;SDS011;68929;42.666;23.324;2023-08-20T11:41:45;5.67;;;3.60;;
79460;SDS011;68929;42.666;23.324;2023-08-20T11:44:10;4.03;;;3.22;;
79460;SDS011;68929;42.666;23.324;2023-08-20T11:46:43;5.07;;;3.53;;
79460;SDS011;68929;42.666;23.324;2023-08-20T11:49:10;4.22;;;3.38;;
79460;SDS011;68929;42.666;23.324;2023-08-20T11:51:39;6.05;;;3.50;;
79460;SDS011;68929;42.666;23.324;2023-08-20T11:54:09;6.60;;;3.42;;
79460;SDS011;68929;42.666;23.324;2023-08-20T11:56:45;7.00;;;3.30;;
79460;SDS011;68929;42.666;23.324;2023-08-20T11:59:14;3.67;;;3.20;;
79460;SDS011;68929;42.666;23.324;2023-08-20T12:01:41;4.82;;;3.20;;
79460;SDS011;68929;42.666;23.324;2023-08-20T12:04:07;3.83;;;3.00;;
79460;SDS011;68929;42.666;23.324;2023-08-20T12:06:35;4.60;;;3.25;;
79460;SDS011;68929;42.666;23.324;2023-08-20T12:09:02;8.73;;;3.20;;
79460;SDS011;68929;42.666;23.324;2023-08-20T12:11:48;5.25;;;3.22;;
79460;SDS011;68929;42.666;23.324;2023-08-20T12:14:20;4.10;;;3.50;;
79460;SDS011;68929;42.666;23.324;2023-08-20T12:16:48;4.00;;;3.42;;
79460;SDS011;68929;42.666;23.324;2023-08-20T12:19:16;3.75;;;3.40;;
79460;SDS011;68929;42.666;23.324;2023-08-20T12:21:41;3.63;;;3.10;;
79460;SDS011;68929;42.666;23.324;2023-08-20T12:24:08;3.45;;;3.10;;
79460;SDS011;68929;42.666;23.324;2023-08-20T12:26:34;3.45;;;3.17;;
79460;SDS011;68929;42.666;23.324;2023-08-20T12:29:00;5.57;;;3.38;;
79460;SDS011;68929;42.666;23.324;2023-08-20T12:31:25;4.10;;;3.00;;
79460;SDS011;68929;42.666;23.324;2023-08-20T12:33:51;9.40;;;3.60;;
79460;SDS011;68929;42.666;23.324;2023-08-20T12:36:16;3.30;;;3.00;;
79460;SDS011;68929;42.666;23.324;2023-08-20T12:38:41;5.85;;;3.40;;
79460;SDS011;68929;42.666;23.324;2023-08-20T12:41:07;4.40;;;3.40;;
79460;SDS011;68929;42.666;23.324;2023-08-20T12:43:32;3.78;;;3.30;;
79460;SDS011;68929;42.666;23.324;2023-08-20T12:45:58;6.55;;;3.45;;
79460;SDS011;68929;42.666;23.324;2023-08-20T12:48:23;5.35;;;3.17;;
79460;SDS011;68929;42.666;23.324;2023-08-20T12:50:48;6.40;;;3.33;;
79460;SDS011;68929;42.666;23.324;2023-08-20T12:53:18;6.82;;;3.08;;
79460;SDS011;68929;42.666;23.324;2023-08-20T12:55:47;7.05;;;3.80;;
79460;SDS011;68929;42.666;23.324;2023-08-20T12:58:13;6.60;;;3.20;;
79460;SDS011;68929;42.666;23.324;2023-08-20T13:00:38;4.13;;;3.30;;
79460;SDS011;68929;42.666;23.324;2023-08-20T13:03:04;3.50;;;3.08;;
79460;SDS011;68929;42.666;23.324;2023-08-20T13:05:30;4.63;;;3.50;;
79460;SDS011;68929;42.666;23.324;2023-08-20T13:07:56;8.18;;;3.33;;
79460;SDS011;68929;42.666;23.324;2023-08-20T13:10:21;6.63;;;3.63;;
79460;SDS011;68929;42.666;23.324;2023-08-20T13:12:48;5.25;;;3.33;;
79460;SDS011;68929;42.666;23.324;2023-08-20T13:15:19;4.47;;;3.75;;
79460;SDS011;68929;42.666;23.324;2023-08-20T13:17:47;4.47;;;3.33;;
79460;SDS011;68929;42.666;23.324;2023-08-20T13:20:13;5.38;;;3.50;;
79460;SDS011;68929;42.666;23.324;2023-08-20T13:22:40;4.65;;;3.20;;
79460;SDS011;68929;42.666;23.324;2023-08-20T13:25:05;4.50;;;3.33;;
79460;SDS011;68929;42.666;23.324;2023-08-20T13:27:31;4.55;;;3.22;;
79460;SDS011;68929;42.666;23.324;2023-08-20T13:29:58;6.65;;;3.40;;
79460;SDS011;68929;42.666;23.324;2023-08-20T13:32:24;6.97;;;3.53;;
79460;SDS011;68929;42.666;23.324;2023-08-20T13:34:50;5.30;;;3.40;;
79460;SDS011;68929;42.666;23.324;2023-08-20T13:37:15;4.93;;;3.40;;
79460;SDS011;68929;42.666;23.324;2023-08-20T13:39:41;4.40;;;4.00;;
79460;SDS011;68929;42.666;23.324;2023-08-20T13:42:06;6.55;;;4.10;;
79460;SDS011;68929;42.666;23.324;2023-08-20T13:44:32;3.95;;;3.40;;
79460;SDS011;68929;42.666;23.324;2023-08-20T13:46:57;7.35;;;3.47;;
79460;SDS011;68929;42.666;23.324;2023-08-20T13:49:22;3.83;;;3.33;;
79460;SDS011;68929;42.666;23.324;2023-08-20T13:51:48;5.03;;;3.53;;
79460;SDS011;68929;42.666;23.324;2023-08-20T13:54:13;4.47;;;3.25;;
79460;SDS011;68929;42.666;23.324;2023-08-20T13:56:39;3.35;;;3.13;;
79460;SDS011;68929;42.666;23.324;2023-08-20T13:59:04;3.20;;;2.90;;
79460;SDS011;68929;42.666;23.324;2023-08-20T14:01:29;4.20;;;3.67;;
79460;SDS011;68929;42.666;23.324;2023-08-20T14:03:55;4.85;;;3.15;;
79460;SDS011;68929;42.666;23.324;2023-08-20T14:06:26;3.75;;;3.28;;
79460;SDS011;68929;42.666;23.324;2023-08-20T14:08:51;4.50;;;3.40;;
79460;SDS011;68929;42.666;23.324;2023-08-20T14:11:17;7.43;;;3.60;;
79460;SDS011;68929;42.666;23.324;2023-08-20T14:13:42;4.15;;;3.72;;
79460;SDS011;68929;42.666;23.324;2023-08-20T14:16:08;4.70;;;3.88;;
79460;SDS011;68929;42.666;23.324;2023-08-20T14:18:33;4.10;;;3.80;;
79460;SDS011;68929;42.666;23.324;2023-08-20T14:20:59;4.28;;;3.70;;
79460;SDS011;68929;42.666;23.324;2023-08-20T14:23:24;5.38;;;3.65;;
79460;SDS011;68929;42.666;23.324;2023-08-20T14:25:50;3.72;;;3.42;;
79460;SDS011;68929;42.666;23.324;2023-08-20T14:28:15;3.92;;;3.63;;
79460;SDS011;68929;42.666;23.324;2023-08-20T14:30:40;4.70;;;3.75;;
79460;SDS011;68929;42.666;23.324;2023-08-20T14:33:06;5.07;;;3.60;;
79460;SDS011;68929;42.666;23.324;2023-08-20T14:35:32;4.88;;;4.45;;
79460;SDS011;68929;42.666;23.324;2023-08-20T14:37:57;5.65;;;3.95;;
79460;SDS011;68929;42.666;23.324;2023-08-20T14:40:23;4.93;;;3.65;;
79460;SDS011;68929;42.666;23.324;2023-08-20T14:42:49;5.47;;;3.60;;
79460;SDS011;68929;42.666;23.324;2023-08-20T14:45:15;4.80;;;3.90;;